Webster City Municipal Airport
Thursday 6:20 PM
Weather Sunny
Temperature 88°
Dew Point 68°
Feels Like 91°
Relative Humidity 52
%
Visibility 10
mi
Pressure 1010.8
mb
Wind Direction WSW
Wind Speed 10
mph
Last Hour Precip 0.00
"
KEBS 302320Z AUTO 24009KT 10SM CLR 31/20 A2985 RMK AO2

Recent Observations

Time Present Weather Temp DP Feels RH% Vsby Pressure Ceiling Direction Speed Gust 1h Precip
6:20PM
VFR
88° 68° 91° 52
%
10
mi
1010.8
mb
None WSW 10
mph
0.00"
KEBS 302320Z AUTO 24009KT 10SM CLR 31/20 A2985 RMK AO2
6:15PM
VFR
88° 68° 91° 52
%
10
mi
1010.8
mb
None WSW 8
mph
14
mph
0.00"
KEBS 302315Z AUTO 24007G12KT 10SM CLR 31/20 A2985 RMK AO2
6:10PM
VFR
86° 68° 89° 55
%
10
mi
1010.8
mb
None WSW 9
mph
15
mph
0.00"
KEBS 302310Z AUTO 24008G13KT 10SM CLR 30/20 A2985 RMK AO2
6:05PM
VFR
86° 68° 89° 55
%
10
mi
1010.8
mb
None WSW 10
mph
0.00"
KEBS 302305Z AUTO 24009KT 10SM CLR 30/20 A2985 RMK AO2
6:00PM
VFR
86° 68° 89° 55
%
10
mi
1010.8
mb
None WSW 10
mph
0.00"
KEBS 302300Z AUTO 24009KT 10SM CLR 30/20 A2985 RMK AO2
5:55PM
VFR
86° 68° 89° 55
%
10
mi
1010.8
mb
None WSW 13
mph
0.00"
KEBS 302255Z AUTO 24011KT 10SM CLR 30/20 A2985 RMK AO2
5:50PM
VFR
86° 66° 88° 52
%
10
mi
1010.8
mb
None SW 9
mph
17
mph
0.00"
KEBS 302250Z AUTO 23008G15KT 10SM CLR 30/19 A2985 RMK AO2
5:40PM
VFR
88° 66° 90° 49
%
10
mi
1010.8
mb
None WSW 13
mph
0.00"
KEBS 302240Z AUTO 24011KT 10SM CLR 31/19 A2985 RMK AO2
5:35PM
VFR
88° 66° 90° 49
%
10
mi
1010.8
mb
None SW 12
mph
18
mph
0.00"
KEBS 302235Z AUTO 23010G16KT 10SM CLR 31/19 A2985 RMK AO2
5:30PM
VFR
88° 66° 90° 49
%
10
mi
1010.8
mb
None WSW 13
mph
18
mph
0.00"
KEBS 302230Z AUTO 24011G16KT 10SM CLR 31/19 A2985 RMK AO2
5:25PM
VFR
88° 66° 90° 49
%
10
mi
1010.8
mb
None WSW 12
mph
20
mph
0.00"
KEBS 302225Z AUTO 24010G17KT 10SM CLR 31/19 A2985 RMK AO2
5:20PM
VFR
88° 66° 90° 49
%
10
mi
1010.8
mb
None WSW 12
mph
20
mph
0.00"
KEBS 302220Z AUTO 24010G17KT 10SM CLR 31/19 A2985 RMK AO2
5:15PM
VFR
88° 66° 90° 49
%
10
mi
1010.8
mb
None SW 12
mph
17
mph
0.00"
KEBS 302215Z AUTO 23010G15KT 10SM CLR 31/19 A2985 RMK AO2
5:10PM
VFR
86° 66° 88° 52
%
10
mi
1010.8
mb
None WSW 12
mph
0.00"
KEBS 302210Z AUTO 24010KT 10SM CLR 30/19 A2985 RMK AO2
5:05PM
VFR
86° 66° 88° 52
%
10
mi
1010.8
mb
None SW 9
mph
16
mph
0.00"
KEBS 302205Z AUTO 23008G14KT 10SM CLR 30/19 A2985 RMK AO2
5:00PM
VFR
86° 66° 88° 52
%
10
mi
1010.8
mb
None SW 13
mph
0.00"
KEBS 302200Z AUTO 23011KT 10SM CLR 30/19 A2985 RMK AO2
4:55PM
VFR
86° 66° 88° 52
%
10
mi
1010.8
mb
None WSW 13
mph
20
mph
0.00"
KEBS 302155Z AUTO 24011G17KT 10SM CLR 30/19 A2985 RMK AO2
4:50PM
VFR
86° 64° 87° 49
%
10
mi
1010.8
mb
None WSW 13
mph
22
mph
0.00"
KEBS 302150Z AUTO 24011G19KT 10SM CLR 30/18 A2985 RMK AO2
4:45PM
VFR
86° 66° 88° 52
%
10
mi
1010.8
mb
None WSW 15
mph
22
mph
0.00"
KEBS 302145Z AUTO 24013G19KT 10SM CLR 30/19 A2985 RMK AO2
4:40PM
VFR
86° 64° 87° 49
%
10
mi
1010.5
mb
None SW 14
mph
0.00"
KEBS 302140Z AUTO 23012KT 10SM CLR 30/18 A2984 RMK AO2
Click here to show this page without METARs/TAFs included